sensor_id;sensor_type;location;lat;lon;timestamp;P1;durP1;ratioP1;P2;durP2;ratioP2
18433;SDS011;9344;52.294;13.626;2022-08-03T00:00:50;3.45;;;2.40;;
18433;SDS011;9344;52.294;13.626;2022-08-03T00:03:17;4.57;;;2.42;;
18433;SDS011;9344;52.294;13.626;2022-08-03T00:05:43;5.38;;;2.70;;
18433;SDS011;9344;52.294;13.626;2022-08-03T00:08:10;3.80;;;2.22;;
18433;SDS011;9344;52.294;13.626;2022-08-03T00:10:36;4.88;;;2.35;;
18433;SDS011;9344;52.294;13.626;2022-08-03T00:13:04;4.93;;;2.45;;
18433;SDS011;9344;52.294;13.626;2022-08-03T00:15:31;3.00;;;2.30;;
18433;SDS011;9344;52.294;13.626;2022-08-03T00:17:57;3.55;;;2.35;;
18433;SDS011;9344;52.294;13.626;2022-08-03T00:20:24;4.85;;;2.70;;
18433;SDS011;9344;52.294;13.626;2022-08-03T00:22:50;4.97;;;2.65;;
18433;SDS011;9344;52.294;13.626;2022-08-03T00:25:17;4.03;;;2.60;;
18433;SDS011;9344;52.294;13.626;2022-08-03T00:27:44;4.97;;;2.60;;
18433;SDS011;9344;52.294;13.626;2022-08-03T00:30:12;4.28;;;2.45;;
18433;SDS011;9344;52.294;13.626;2022-08-03T00:32:38;3.90;;;2.20;;
18433;SDS011;9344;52.294;13.626;2022-08-03T00:35:05;4.55;;;2.78;;
18433;SDS011;9344;52.294;13.626;2022-08-03T00:37:32;5.10;;;2.42;;
18433;SDS011;9344;52.294;13.626;2022-08-03T00:39:58;5.28;;;2.67;;
18433;SDS011;9344;52.294;13.626;2022-08-03T00:42:25;2.95;;;2.30;;
18433;SDS011;9344;52.294;13.626;2022-08-03T00:44:51;4.40;;;2.20;;
18433;SDS011;9344;52.294;13.626;2022-08-03T00:47:19;4.38;;;2.50;;
18433;SDS011;9344;52.294;13.626;2022-08-03T00:49:46;4.70;;;2.22;;
18433;SDS011;9344;52.294;13.626;2022-08-03T00:52:12;3.65;;;2.40;;
18433;SDS011;9344;52.294;13.626;2022-08-03T00:54:41;5.15;;;2.67;;
18433;SDS011;9344;52.294;13.626;2022-08-03T00:57:07;4.68;;;2.30;;
18433;SDS011;9344;52.294;13.626;2022-08-03T00:59:34;3.97;;;2.70;;
18433;SDS011;9344;52.294;13.626;2022-08-03T01:02:02;4.82;;;2.53;;
18433;SDS011;9344;52.294;13.626;2022-08-03T01:04:30;4.03;;;2.63;;
18433;SDS011;9344;52.294;13.626;2022-08-03T01:06:58;3.85;;;2.40;;
18433;SDS011;9344;52.294;13.626;2022-08-03T01:09:34;3.65;;;2.42;;
18433;SDS011;9344;52.294;13.626;2022-08-03T01:12:07;3.65;;;2.00;;
18433;SDS011;9344;52.294;13.626;2022-08-03T01:14:40;5.97;;;2.70;;
18433;SDS011;9344;52.294;13.626;2022-08-03T01:17:10;4.03;;;2.70;;
18433;SDS011;9344;52.294;13.626;2022-08-03T01:19:45;3.97;;;2.33;;
18433;SDS011;9344;52.294;13.626;2022-08-03T01:22:22;6.80;;;2.67;;
18433;SDS011;9344;52.294;13.626;2022-08-03T01:25:05;4.28;;;2.22;;
18433;SDS011;9344;52.294;13.626;2022-08-03T01:27:42;3.45;;;2.22;;
18433;SDS011;9344;52.294;13.626;2022-08-03T01:30:17;3.42;;;2.55;;
18433;SDS011;9344;52.294;13.626;2022-08-03T01:32:45;4.68;;;2.40;;
18433;SDS011;9344;52.294;13.626;2022-08-03T01:35:16;3.33;;;2.03;;
18433;SDS011;9344;52.294;13.626;2022-08-03T01:37:51;4.35;;;2.50;;
18433;SDS011;9344;52.294;13.626;2022-08-03T01:40:22;3.50;;;2.60;;
18433;SDS011;9344;52.294;13.626;2022-08-03T01:42:51;4.38;;;2.45;;
18433;SDS011;9344;52.294;13.626;2022-08-03T01:45:22;4.28;;;2.55;;
18433;SDS011;9344;52.294;13.626;2022-08-03T01:47:49;4.90;;;2.72;;
18433;SDS011;9344;52.294;13.626;2022-08-03T01:50:18;3.97;;;2.70;;
18433;SDS011;9344;52.294;13.626;2022-08-03T01:52:48;5.35;;;2.80;;
18433;SDS011;9344;52.294;13.626;2022-08-03T01:55:17;4.15;;;2.55;;
18433;SDS011;9344;52.294;13.626;2022-08-03T01:57:45;5.82;;;2.83;;
18433;SDS011;9344;52.294;13.626;2022-08-03T02:00:13;5.45;;;2.33;;
18433;SDS011;9344;52.294;13.626;2022-08-03T02:02:42;4.28;;;2.63;;
18433;SDS011;9344;52.294;13.626;2022-08-03T02:05:12;4.65;;;2.75;;
18433;SDS011;9344;52.294;13.626;2022-08-03T02:07:39;4.57;;;2.60;;
18433;SDS011;9344;52.294;13.626;2022-08-03T02:10:07;4.20;;;2.58;;
18433;SDS011;9344;52.294;13.626;2022-08-03T02:12:36;3.20;;;2.30;;
18433;SDS011;9344;52.294;13.626;2022-08-03T02:15:04;3.38;;;2.42;;
18433;SDS011;9344;52.294;13.626;2022-08-03T02:17:32;4.55;;;2.42;;
18433;SDS011;9344;52.294;13.626;2022-08-03T02:20:01;3.97;;;2.40;;
18433;SDS011;9344;52.294;13.626;2022-08-03T02:22:29;5.57;;;2.50;;
18433;SDS011;9344;52.294;13.626;2022-08-03T02:24:56;4.40;;;2.72;;
18433;SDS011;9344;52.294;13.626;2022-08-03T02:27:23;3.80;;;2.38;;
18433;SDS011;9344;52.294;13.626;2022-08-03T02:29:52;4.13;;;2.65;;
18433;SDS011;9344;52.294;13.626;2022-08-03T02:32:23;4.75;;;2.80;;
18433;SDS011;9344;52.294;13.626;2022-08-03T02:34:54;3.80;;;2.42;;
18433;SDS011;9344;52.294;13.626;2022-08-03T02:37:26;4.05;;;2.63;;
18433;SDS011;9344;52.294;13.626;2022-08-03T02:39:57;5.25;;;2.95;;
18433;SDS011;9344;52.294;13.626;2022-08-03T02:42:27;4.10;;;2.53;;
18433;SDS011;9344;52.294;13.626;2022-08-03T02:44:57;3.85;;;2.50;;
18433;SDS011;9344;52.294;13.626;2022-08-03T02:47:26;5.05;;;2.70;;
18433;SDS011;9344;52.294;13.626;2022-08-03T02:49:54;3.60;;;2.38;;
18433;SDS011;9344;52.294;13.626;2022-08-03T02:52:24;4.75;;;2.53;;
18433;SDS011;9344;52.294;13.626;2022-08-03T02:54:59;4.43;;;2.70;;
18433;SDS011;9344;52.294;13.626;2022-08-03T02:57:29;4.30;;;2.65;;
18433;SDS011;9344;52.294;13.626;2022-08-03T02:59:59;5.38;;;2.28;;
18433;SDS011;9344;52.294;13.626;2022-08-03T03:02:27;3.88;;;2.28;;
18433;SDS011;9344;52.294;13.626;2022-08-03T03:04:54;3.65;;;2.50;;
18433;SDS011;9344;52.294;13.626;2022-08-03T03:07:21;3.97;;;2.40;;
18433;SDS011;9344;52.294;13.626;2022-08-03T03:09:49;3.55;;;2.47;;
18433;SDS011;9344;52.294;13.626;2022-08-03T03:12:17;3.08;;;2.05;;
18433;SDS011;9344;52.294;13.626;2022-08-03T03:14:44;3.53;;;2.35;;
18433;SDS011;9344;52.294;13.626;2022-08-03T03:17:11;6.88;;;2.80;;
18433;SDS011;9344;52.294;13.626;2022-08-03T03:19:40;4.97;;;2.85;;
18433;SDS011;9344;52.294;13.626;2022-08-03T03:22:09;4.85;;;3.08;;
18433;SDS011;9344;52.294;13.626;2022-08-03T03:24:36;4.63;;;2.72;;
18433;SDS011;9344;52.294;13.626;2022-08-03T03:27:06;4.05;;;2.60;;
18433;SDS011;9344;52.294;13.626;2022-08-03T03:29:33;4.93;;;2.97;;
18433;SDS011;9344;52.294;13.626;2022-08-03T03:32:00;4.28;;;2.33;;
18433;SDS011;9344;52.294;13.626;2022-08-03T03:34:27;4.00;;;2.50;;
18433;SDS011;9344;52.294;13.626;2022-08-03T03:36:54;3.13;;;2.30;;
18433;SDS011;9344;52.294;13.626;2022-08-03T03:39:21;4.50;;;2.80;;
18433;SDS011;9344;52.294;13.626;2022-08-03T03:41:48;4.90;;;2.70;;
18433;SDS011;9344;52.294;13.626;2022-08-03T03:44:15;5.20;;;2.65;;
18433;SDS011;9344;52.294;13.626;2022-08-03T03:46:42;3.83;;;2.65;;
18433;SDS011;9344;52.294;13.626;2022-08-03T03:49:09;5.03;;;2.63;;
18433;SDS011;9344;52.294;13.626;2022-08-03T03:51:35;3.15;;;2.30;;
18433;SDS011;9344;52.294;13.626;2022-08-03T03:54:03;4.15;;;2.50;;
18433;SDS011;9344;52.294;13.626;2022-08-03T03:56:30;9.73;;;2.75;;
18433;SDS011;9344;52.294;13.626;2022-08-03T03:58:57;3.15;;;2.47;;
18433;SDS011;9344;52.294;13.626;2022-08-03T04:01:25;5.95;;;2.50;;
18433;SDS011;9344;52.294;13.626;2022-08-03T04:03:52;4.55;;;2.75;;
18433;SDS011;9344;52.294;13.626;2022-08-03T04:06:18;5.45;;;2.70;;
18433;SDS011;9344;52.294;13.626;2022-08-03T04:09:03;4.10;;;2.80;;
18433;SDS011;9344;52.294;13.626;2022-08-03T04:11:48;5.93;;;2.83;;
18433;SDS011;9344;52.294;13.626;2022-08-03T04:14:17;5.00;;;2.58;;
18433;SDS011;9344;52.294;13.626;2022-08-03T04:16:49;4.95;;;3.00;;
18433;SDS011;9344;52.294;13.626;2022-08-03T04:19:21;4.88;;;3.10;;
18433;SDS011;9344;52.294;13.626;2022-08-03T04:21:53;5.53;;;2.47;;
18433;SDS011;9344;52.294;13.626;2022-08-03T04:24:25;4.22;;;2.80;;
18433;SDS011;9344;52.294;13.626;2022-08-03T04:26:56;3.85;;;2.63;;
18433;SDS011;9344;52.294;13.626;2022-08-03T04:29:25;6.22;;;2.90;;
18433;SDS011;9344;52.294;13.626;2022-08-03T04:31:55;5.30;;;2.95;;
18433;SDS011;9344;52.294;13.626;2022-08-03T04:34:23;6.18;;;2.92;;
18433;SDS011;9344;52.294;13.626;2022-08-03T04:36:51;5.22;;;2.80;;
18433;SDS011;9344;52.294;13.626;2022-08-03T04:39:23;4.15;;;3.00;;
18433;SDS011;9344;52.294;13.626;2022-08-03T04:41:52;5.35;;;2.63;;
18433;SDS011;9344;52.294;13.626;2022-08-03T04:44:20;4.82;;;2.63;;
18433;SDS011;9344;52.294;13.626;2022-08-03T04:46:50;4.28;;;2.72;;
18433;SDS011;9344;52.294;13.626;2022-08-03T04:49:19;3.92;;;2.38;;
18433;SDS011;9344;52.294;13.626;2022-08-03T04:51:46;5.07;;;2.70;;
18433;SDS011;9344;52.294;13.626;2022-08-03T04:54:14;6.43;;;2.85;;
18433;SDS011;9344;52.294;13.626;2022-08-03T04:56:41;4.95;;;2.78;;
18433;SDS011;9344;52.294;13.626;2022-08-03T04:59:08;5.63;;;3.30;;
18433;SDS011;9344;52.294;13.626;2022-08-03T05:01:35;4.78;;;2.80;;
18433;SDS011;9344;52.294;13.626;2022-08-03T05:04:02;3.65;;;2.60;;
18433;SDS011;9344;52.294;13.626;2022-08-03T05:06:29;4.03;;;2.50;;
18433;SDS011;9344;52.294;13.626;2022-08-03T05:08:56;4.30;;;2.72;;
18433;SDS011;9344;52.294;13.626;2022-08-03T05:11:23;4.03;;;2.38;;
18433;SDS011;9344;52.294;13.626;2022-08-03T05:13:49;4.72;;;2.55;;
18433;SDS011;9344;52.294;13.626;2022-08-03T05:16:16;6.78;;;2.92;;
18433;SDS011;9344;52.294;13.626;2022-08-03T05:18:43;4.35;;;2.47;;
18433;SDS011;9344;52.294;13.626;2022-08-03T05:21:09;4.28;;;2.40;;
18433;SDS011;9344;52.294;13.626;2022-08-03T05:23:39;6.30;;;3.15;;
18433;SDS011;9344;52.294;13.626;2022-08-03T05:26:05;3.60;;;2.50;;
18433;SDS011;9344;52.294;13.626;2022-08-03T05:28:32;4.40;;;2.63;;
18433;SDS011;9344;52.294;13.626;2022-08-03T05:30:59;3.92;;;2.80;;
18433;SDS011;9344;52.294;13.626;2022-08-03T05:33:25;4.68;;;2.70;;
18433;SDS011;9344;52.294;13.626;2022-08-03T05:35:52;5.43;;;2.45;;
18433;SDS011;9344;52.294;13.626;2022-08-03T05:38:18;4.95;;;2.85;;
18433;SDS011;9344;52.294;13.626;2022-08-03T05:40:46;3.83;;;2.47;;
18433;SDS011;9344;52.294;13.626;2022-08-03T05:43:13;4.05;;;2.58;;
18433;SDS011;9344;52.294;13.626;2022-08-03T05:45:40;4.20;;;2.70;;
18433;SDS011;9344;52.294;13.626;2022-08-03T05:48:08;4.25;;;2.67;;
18433;SDS011;9344;52.294;13.626;2022-08-03T05:50:34;3.80;;;2.15;;
18433;SDS011;9344;52.294;13.626;2022-08-03T05:53:01;4.65;;;2.63;;
18433;SDS011;9344;52.294;13.626;2022-08-03T05:55:27;3.75;;;2.35;;
18433;SDS011;9344;52.294;13.626;2022-08-03T05:57:55;4.55;;;2.70;;
18433;SDS011;9344;52.294;13.626;2022-08-03T06:00:22;5.05;;;2.60;;
18433;SDS011;9344;52.294;13.626;2022-08-03T06:02:49;5.03;;;2.70;;
18433;SDS011;9344;52.294;13.626;2022-08-03T06:05:15;3.58;;;2.53;;
18433;SDS011;9344;52.294;13.626;2022-08-03T06:07:42;4.53;;;2.35;;
18433;SDS011;9344;52.294;13.626;2022-08-03T06:10:08;3.85;;;2.22;;
18433;SDS011;9344;52.294;13.626;2022-08-03T06:12:35;6.95;;;2.25;;
18433;SDS011;9344;52.294;13.626;2022-08-03T06:15:04;4.97;;;2.30;;
18433;SDS011;9344;52.294;13.626;2022-08-03T06:17:31;5.10;;;2.53;;
18433;SDS011;9344;52.294;13.626;2022-08-03T06:19:58;3.00;;;1.98;;
18433;SDS011;9344;52.294;13.626;2022-08-03T06:22:24;2.90;;;2.17;;
18433;SDS011;9344;52.294;13.626;2022-08-03T06:24:51;2.75;;;1.90;;
18433;SDS011;9344;52.294;13.626;2022-08-03T06:27:17;2.97;;;1.92;;
18433;SDS011;9344;52.294;13.626;2022-08-03T06:29:44;2.10;;;1.60;;
18433;SDS011;9344;52.294;13.626;2022-08-03T06:32:12;5.82;;;2.38;;
18433;SDS011;9344;52.294;13.626;2022-08-03T06:34:38;4.28;;;2.13;;
18433;SDS011;9344;52.294;13.626;2022-08-03T06:37:05;3.22;;;1.98;;
18433;SDS011;9344;52.294;13.626;2022-08-03T06:39:31;2.88;;;2.05;;
18433;SDS011;9344;52.294;13.626;2022-08-03T06:41:58;2.60;;;1.77;;
18433;SDS011;9344;52.294;13.626;2022-08-03T06:44:24;4.57;;;2.17;;
18433;SDS011;9344;52.294;13.626;2022-08-03T06:46:51;3.70;;;1.88;;
18433;SDS011;9344;52.294;13.626;2022-08-03T06:49:19;3.92;;;1.98;;
18433;SDS011;9344;52.294;13.626;2022-08-03T06:51:45;3.13;;;2.17;;
18433;SDS011;9344;52.294;13.626;2022-08-03T06:54:12;2.85;;;2.13;;
18433;SDS011;9344;52.294;13.626;2022-08-03T06:56:38;4.28;;;1.70;;
18433;SDS011;9344;52.294;13.626;2022-08-03T06:59:05;2.65;;;2.00;;
18433;SDS011;9344;52.294;13.626;2022-08-03T07:01:31;2.65;;;1.80;;
18433;SDS011;9344;52.294;13.626;2022-08-03T07:03:58;2.72;;;1.85;;
18433;SDS011;9344;52.294;13.626;2022-08-03T07:06:26;2.53;;;1.92;;
18433;SDS011;9344;52.294;13.626;2022-08-03T07:08:53;5.13;;;1.88;;
18433;SDS011;9344;52.294;13.626;2022-08-03T07:11:20;3.30;;;2.15;;
18433;SDS011;9344;52.294;13.626;2022-08-03T07:13:47;2.92;;;2.05;;
18433;SDS011;9344;52.294;13.626;2022-08-03T07:16:13;3.30;;;1.80;;
18433;SDS011;9344;52.294;13.626;2022-08-03T07:18:40;2.00;;;1.50;;
18433;SDS011;9344;52.294;13.626;2022-08-03T07:21:06;2.90;;;1.75;;
18433;SDS011;9344;52.294;13.626;2022-08-03T07:23:36;1.77;;;1.45;;
18433;SDS011;9344;52.294;13.626;2022-08-03T07:26:02;2.88;;;1.63;;
18433;SDS011;9344;52.294;13.626;2022-08-03T07:28:29;3.00;;;1.63;;
18433;SDS011;9344;52.294;13.626;2022-08-03T07:30:56;2.28;;;1.58;;
18433;SDS011;9344;52.294;13.626;2022-08-03T07:33:23;5.43;;;1.70;;
18433;SDS011;9344;52.294;13.626;2022-08-03T07:35:50;2.17;;;1.38;;
18433;SDS011;9344;52.294;13.626;2022-08-03T07:38:16;4.15;;;1.70;;
18433;SDS011;9344;52.294;13.626;2022-08-03T07:40:44;2.00;;;1.50;;
18433;SDS011;9344;52.294;13.626;2022-08-03T07:43:11;3.72;;;1.50;;
18433;SDS011;9344;52.294;13.626;2022-08-03T07:45:37;4.10;;;1.60;;
18433;SDS011;9344;52.294;13.626;2022-08-03T07:48:04;2.63;;;1.70;;
18433;SDS011;9344;52.294;13.626;2022-08-03T07:50:31;2.40;;;1.30;;
18433;SDS011;9344;52.294;13.626;2022-08-03T07:52:57;2.88;;;1.60;;
18433;SDS011;9344;52.294;13.626;2022-08-03T07:55:24;4.43;;;1.60;;
18433;SDS011;9344;52.294;13.626;2022-08-03T07:58:00;4.55;;;1.40;;
18433;SDS011;9344;52.294;13.626;2022-08-03T08:00:27;2.95;;;0.95;;
18433;SDS011;9344;52.294;13.626;2022-08-03T08:02:54;1.45;;;1.00;;
18433;SDS011;9344;52.294;13.626;2022-08-03T08:05:21;2.15;;;1.25;;
18433;SDS011;9344;52.294;13.626;2022-08-03T08:07:47;2.10;;;1.30;;
18433;SDS011;9344;52.294;13.626;2022-08-03T08:10:14;1.52;;;1.10;;
18433;SDS011;9344;52.294;13.626;2022-08-03T08:12:40;1.95;;;1.00;;
18433;SDS011;9344;52.294;13.626;2022-08-03T08:15:08;1.30;;;1.08;;
18433;SDS011;9344;52.294;13.626;2022-08-03T08:17:41;1.23;;;1.00;;
18433;SDS011;9344;52.294;13.626;2022-08-03T08:20:10;1.63;;;1.05;;
18433;SDS011;9344;52.294;13.626;2022-08-03T08:22:40;2.95;;;1.30;;
18433;SDS011;9344;52.294;13.626;2022-08-03T08:25:06;1.75;;;1.30;;
18433;SDS011;9344;52.294;13.626;2022-08-03T08:27:39;3.05;;;1.20;;
18433;SDS011;9344;52.294;13.626;2022-08-03T08:30:06;2.78;;;1.00;;
18433;SDS011;9344;52.294;13.626;2022-08-03T08:32:35;1.75;;;1.02;;
18433;SDS011;9344;52.294;13.626;2022-08-03T08:35:02;2.92;;;1.20;;
18433;SDS011;9344;52.294;13.626;2022-08-03T08:37:30;1.45;;;1.23;;
18433;SDS011;9344;52.294;13.626;2022-08-03T08:39:56;1.75;;;1.10;;
18433;SDS011;9344;52.294;13.626;2022-08-03T08:42:23;1.95;;;1.10;;
18433;SDS011;9344;52.294;13.626;2022-08-03T08:44:50;1.50;;;1.20;;
18433;SDS011;9344;52.294;13.626;2022-08-03T08:47:18;1.30;;;1.10;;
18433;SDS011;9344;52.294;13.626;2022-08-03T08:49:49;1.73;;;1.10;;
18433;SDS011;9344;52.294;13.626;2022-08-03T08:52:18;2.05;;;1.08;;
18433;SDS011;9344;52.294;13.626;2022-08-03T08:54:50;1.33;;;1.00;;
18433;SDS011;9344;52.294;13.626;2022-08-03T08:57:19;1.08;;;0.95;;
18433;SDS011;9344;52.294;13.626;2022-08-03T08:59:49;1.45;;;1.05;;
18433;SDS011;9344;52.294;13.626;2022-08-03T09:02:20;1.55;;;1.17;;
18433;SDS011;9344;52.294;13.626;2022-08-03T09:04:46;1.63;;;1.10;;
18433;SDS011;9344;52.294;13.626;2022-08-03T09:07:13;1.30;;;0.80;;
18433;SDS011;9344;52.294;13.626;2022-08-03T09:09:41;1.58;;;1.10;;
18433;SDS011;9344;52.294;13.626;2022-08-03T09:12:08;2.53;;;1.10;;
18433;SDS011;9344;52.294;13.626;2022-08-03T09:14:35;1.40;;;1.05;;
18433;SDS011;9344;52.294;13.626;2022-08-03T09:17:02;2.45;;;1.20;;
18433;SDS011;9344;52.294;13.626;2022-08-03T09:19:31;1.35;;;0.90;;
18433;SDS011;9344;52.294;13.626;2022-08-03T09:22:08;2.22;;;1.17;;
18433;SDS011;9344;52.294;13.626;2022-08-03T09:24:37;1.20;;;1.00;;
18433;SDS011;9344;52.294;13.626;2022-08-03T09:27:18;1.80;;;1.10;;
18433;SDS011;9344;52.294;13.626;2022-08-03T09:29:46;2.00;;;1.33;;
18433;SDS011;9344;52.294;13.626;2022-08-03T09:32:13;2.85;;;1.00;;
18433;SDS011;9344;52.294;13.626;2022-08-03T09:34:41;1.45;;;1.10;;
18433;SDS011;9344;52.294;13.626;2022-08-03T09:37:11;2.03;;;0.90;;
18433;SDS011;9344;52.294;13.626;2022-08-03T09:39:39;2.30;;;1.10;;
18433;SDS011;9344;52.294;13.626;2022-08-03T09:42:07;1.40;;;0.95;;
18433;SDS011;9344;52.294;13.626;2022-08-03T09:44:34;1.20;;;1.10;;
18433;SDS011;9344;52.294;13.626;2022-08-03T09:47:02;1.77;;;1.10;;
18433;SDS011;9344;52.294;13.626;2022-08-03T09:49:30;2.50;;;1.30;;
18433;SDS011;9344;52.294;13.626;2022-08-03T09:52:01;2.63;;;0.98;;
18433;SDS011;9344;52.294;13.626;2022-08-03T09:54:37;1.25;;;0.90;;
18433;SDS011;9344;52.294;13.626;2022-08-03T09:57:04;3.15;;;1.20;;
18433;SDS011;9344;52.294;13.626;2022-08-03T09:59:31;2.88;;;1.05;;
18433;SDS011;9344;52.294;13.626;2022-08-03T10:01:59;1.17;;;0.90;;
18433;SDS011;9344;52.294;13.626;2022-08-03T10:04:25;1.42;;;1.08;;
18433;SDS011;9344;52.294;13.626;2022-08-03T10:07:04;1.70;;;1.00;;
18433;SDS011;9344;52.294;13.626;2022-08-03T10:09:33;1.20;;;1.08;;
18433;SDS011;9344;52.294;13.626;2022-08-03T10:12:07;2.88;;;1.10;;
18433;SDS011;9344;52.294;13.626;2022-08-03T10:14:35;1.73;;;1.10;;
18433;SDS011;9344;52.294;13.626;2022-08-03T10:17:03;1.80;;;1.08;;
18433;SDS011;9344;52.294;13.626;2022-08-03T10:19:30;2.17;;;1.10;;
18433;SDS011;9344;52.294;13.626;2022-08-03T10:22:00;1.40;;;1.02;;
18433;SDS011;9344;52.294;13.626;2022-08-03T10:24:30;2.40;;;1.33;;
18433;SDS011;9344;52.294;13.626;2022-08-03T10:27:00;1.90;;;1.10;;
18433;SDS011;9344;52.294;13.626;2022-08-03T10:29:28;1.67;;;1.30;;
18433;SDS011;9344;52.294;13.626;2022-08-03T10:32:02;3.03;;;1.30;;
18433;SDS011;9344;52.294;13.626;2022-08-03T10:34:33;1.63;;;1.08;;
18433;SDS011;9344;52.294;13.626;2022-08-03T10:37:05;3.53;;;1.30;;
18433;SDS011;9344;52.294;13.626;2022-08-03T10:39:36;3.38;;;1.20;;
18433;SDS011;9344;52.294;13.626;2022-08-03T10:42:17;1.75;;;1.30;;
18433;SDS011;9344;52.294;13.626;2022-08-03T10:44:45;3.40;;;1.08;;
18433;SDS011;9344;52.294;13.626;2022-08-03T10:47:14;1.80;;;1.40;;
18433;SDS011;9344;52.294;13.626;2022-08-03T10:49:41;1.30;;;1.13;;
18433;SDS011;9344;52.294;13.626;2022-08-03T10:52:07;2.28;;;1.23;;
18433;SDS011;9344;52.294;13.626;2022-08-03T10:54:39;1.88;;;1.30;;
18433;SDS011;9344;52.294;13.626;2022-08-03T11:00:13;1.80;;;1.30;;
18433;SDS011;9344;52.294;13.626;2022-08-03T11:05:31;1.92;;;1.20;;
18433;SDS011;9344;52.294;13.626;2022-08-03T11:10:46;3.25;;;1.30;;
18433;SDS011;9344;52.294;13.626;2022-08-03T11:13:13;1.92;;;1.15;;
18433;SDS011;9344;52.294;13.626;2022-08-03T11:15:42;1.52;;;1.27;;
18433;SDS011;9344;52.294;13.626;2022-08-03T11:18:11;3.30;;;1.30;;
18433;SDS011;9344;52.294;13.626;2022-08-03T11:20:45;2.53;;;1.10;;
18433;SDS011;9344;52.294;13.626;2022-08-03T11:23:13;1.65;;;1.20;;
18433;SDS011;9344;52.294;13.626;2022-08-03T11:28:34;1.67;;;1.20;;
18433;SDS011;9344;52.294;13.626;2022-08-03T11:34:22;1.80;;;1.27;;
18433;SDS011;9344;52.294;13.626;2022-08-03T11:39:46;1.40;;;1.20;;
18433;SDS011;9344;52.294;13.626;2022-08-03T11:45:12;1.92;;;1.45;;
18433;SDS011;9344;52.294;13.626;2022-08-03T11:47:40;2.40;;;1.42;;
18433;SDS011;9344;52.294;13.626;2022-08-03T11:50:08;5.63;;;1.40;;
18433;SDS011;9344;52.294;13.626;2022-08-03T11:52:37;1.30;;;1.20;;
18433;SDS011;9344;52.294;13.626;2022-08-03T11:55:15;1.40;;;1.08;;
18433;SDS011;9344;52.294;13.626;2022-08-03T11:57:45;2.25;;;1.30;;
18433;SDS011;9344;52.294;13.626;2022-08-03T12:00:23;2.00;;;1.40;;
18433;SDS011;9344;52.294;13.626;2022-08-03T12:02:53;2.03;;;1.40;;
18433;SDS011;9344;52.294;13.626;2022-08-03T12:05:33;1.67;;;1.10;;
18433;SDS011;9344;52.294;13.626;2022-08-03T12:08:01;2.30;;;1.45;;
18433;SDS011;9344;52.294;13.626;2022-08-03T12:10:27;1.30;;;1.10;;
18433;SDS011;9344;52.294;13.626;2022-08-03T12:12:55;3.42;;;1.60;;
18433;SDS011;9344;52.294;13.626;2022-08-03T12:15:24;3.03;;;1.30;;
18433;SDS011;9344;52.294;13.626;2022-08-03T12:17:51;3.15;;;1.40;;
18433;SDS011;9344;52.294;13.626;2022-08-03T12:20:19;2.13;;;1.35;;
18433;SDS011;9344;52.294;13.626;2022-08-03T12:22:47;2.17;;;1.45;;
18433;SDS011;9344;52.294;13.626;2022-08-03T12:25:19;2.58;;;1.48;;
18433;SDS011;9344;52.294;13.626;2022-08-03T12:27:46;1.80;;;1.27;;
18433;SDS011;9344;52.294;13.626;2022-08-03T12:30:15;1.77;;;1.33;;
18433;SDS011;9344;52.294;13.626;2022-08-03T12:32:41;1.75;;;1.38;;
18433;SDS011;9344;52.294;13.626;2022-08-03T12:35:09;1.98;;;1.45;;
18433;SDS011;9344;52.294;13.626;2022-08-03T12:37:36;1.73;;;1.40;;
18433;SDS011;9344;52.294;13.626;2022-08-03T12:40:03;1.67;;;1.10;;
18433;SDS011;9344;52.294;13.626;2022-08-03T12:42:30;1.27;;;1.00;;
18433;SDS011;9344;52.294;13.626;2022-08-03T12:44:57;1.38;;;1.20;;
18433;SDS011;9344;52.294;13.626;2022-08-03T12:47:25;2.10;;;1.27;;
18433;SDS011;9344;52.294;13.626;2022-08-03T12:49:52;3.10;;;1.50;;
18433;SDS011;9344;52.294;13.626;2022-08-03T12:52:19;1.17;;;1.02;;
18433;SDS011;9344;52.294;13.626;2022-08-03T12:54:53;1.83;;;1.42;;
18433;SDS011;9344;52.294;13.626;2022-08-03T12:57:20;2.38;;;1.17;;
18433;SDS011;9344;52.294;13.626;2022-08-03T12:59:47;1.17;;;0.90;;
18433;SDS011;9344;52.294;13.626;2022-08-03T13:02:14;2.85;;;1.08;;
18433;SDS011;9344;52.294;13.626;2022-08-03T13:04:42;1.55;;;1.17;;
18433;SDS011;9344;52.294;13.626;2022-08-03T13:07:10;1.42;;;1.23;;
18433;SDS011;9344;52.294;13.626;2022-08-03T13:09:41;1.65;;;1.20;;
18433;SDS011;9344;52.294;13.626;2022-08-03T13:12:09;1.40;;;1.20;;
18433;SDS011;9344;52.294;13.626;2022-08-03T13:14:37;1.60;;;1.27;;
18433;SDS011;9344;52.294;13.626;2022-08-03T13:17:04;2.00;;;1.40;;
18433;SDS011;9344;52.294;13.626;2022-08-03T13:19:31;1.67;;;1.30;;
18433;SDS011;9344;52.294;13.626;2022-08-03T13:21:59;1.17;;;1.00;;
18433;SDS011;9344;52.294;13.626;2022-08-03T13:24:26;1.05;;;0.90;;
18433;SDS011;9344;52.294;13.626;2022-08-03T13:26:54;1.15;;;0.98;;
18433;SDS011;9344;52.294;13.626;2022-08-03T13:29:20;1.35;;;1.00;;
18433;SDS011;9344;52.294;13.626;2022-08-03T13:31:47;1.30;;;1.00;;
18433;SDS011;9344;52.294;13.626;2022-08-03T13:34:13;0.98;;;0.80;;
18433;SDS011;9344;52.294;13.626;2022-08-03T13:36:39;1.88;;;1.20;;
18433;SDS011;9344;52.294;13.626;2022-08-03T13:39:07;1.13;;;1.00;;
18433;SDS011;9344;52.294;13.626;2022-08-03T13:41:34;1.15;;;0.85;;
18433;SDS011;9344;52.294;13.626;2022-08-03T13:44:00;1.15;;;1.00;;
18433;SDS011;9344;52.294;13.626;2022-08-03T13:46:27;1.20;;;0.85;;
18433;SDS011;9344;52.294;13.626;2022-08-03T13:48:53;3.72;;;1.20;;
18433;SDS011;9344;52.294;13.626;2022-08-03T13:51:20;1.58;;;0.93;;
18433;SDS011;9344;52.294;13.626;2022-08-03T13:53:46;1.23;;;0.93;;
18433;SDS011;9344;52.294;13.626;2022-08-03T13:56:14;1.08;;;0.98;;
18433;SDS011;9344;52.294;13.626;2022-08-03T13:58:41;1.80;;;1.00;;
18433;SDS011;9344;52.294;13.626;2022-08-03T14:01:07;3.15;;;1.20;;
18433;SDS011;9344;52.294;13.626;2022-08-03T14:03:34;1.30;;;1.20;;
18433;SDS011;9344;52.294;13.626;2022-08-03T14:06:00;1.48;;;1.00;;
18433;SDS011;9344;52.294;13.626;2022-08-03T14:08:27;1.17;;;0.90;;
18433;SDS011;9344;52.294;13.626;2022-08-03T14:10:54;1.65;;;1.05;;
18433;SDS011;9344;52.294;13.626;2022-08-03T14:13:22;1.42;;;1.02;;
18433;SDS011;9344;52.294;13.626;2022-08-03T14:15:49;1.38;;;1.02;;
18433;SDS011;9344;52.294;13.626;2022-08-03T14:18:16;1.40;;;1.00;;
18433;SDS011;9344;52.294;13.626;2022-08-03T14:20:42;1.70;;;1.10;;
18433;SDS011;9344;52.294;13.626;2022-08-03T14:23:09;1.30;;;0.90;;
18433;SDS011;9344;52.294;13.626;2022-08-03T14:25:36;2.90;;;1.27;;
18433;SDS011;9344;52.294;13.626;2022-08-03T14:28:05;1.33;;;0.90;;
18433;SDS011;9344;52.294;13.626;2022-08-03T14:30:33;1.77;;;1.13;;
18433;SDS011;9344;52.294;13.626;2022-08-03T14:32:59;1.40;;;1.00;;
18433;SDS011;9344;52.294;13.626;2022-08-03T14:35:26;4.43;;;1.25;;
18433;SDS011;9344;52.294;13.626;2022-08-03T14:37:53;0.98;;;0.85;;
18433;SDS011;9344;52.294;13.626;2022-08-03T14:40:19;1.60;;;1.10;;
18433;SDS011;9344;52.294;13.626;2022-08-03T14:42:46;3.30;;;1.00;;
18433;SDS011;9344;52.294;13.626;2022-08-03T14:45:13;0.93;;;0.77;;
18433;SDS011;9344;52.294;13.626;2022-08-03T14:47:40;1.42;;;0.90;;
18433;SDS011;9344;52.294;13.626;2022-08-03T14:50:07;1.20;;;0.70;;
18433;SDS011;9344;52.294;13.626;2022-08-03T14:52:34;1.20;;;0.90;;
18433;SDS011;9344;52.294;13.626;2022-08-03T14:55:01;1.10;;;1.00;;
18433;SDS011;9344;52.294;13.626;2022-08-03T14:57:27;0.88;;;0.82;;
18433;SDS011;9344;52.294;13.626;2022-08-03T14:59:54;1.00;;;0.88;;
18433;SDS011;9344;52.294;13.626;2022-08-03T15:02:20;1.40;;;0.90;;
18433;SDS011;9344;52.294;13.626;2022-08-03T15:04:48;2.00;;;0.90;;
18433;SDS011;9344;52.294;13.626;2022-08-03T15:07:15;1.50;;;0.90;;
18433;SDS011;9344;52.294;13.626;2022-08-03T15:09:41;1.33;;;1.05;;
18433;SDS011;9344;52.294;13.626;2022-08-03T15:12:08;1.23;;;0.90;;
18433;SDS011;9344;52.294;13.626;2022-08-03T15:14:34;0.98;;;0.82;;